Time;durP1;ratioP1;P1;durP2;ratioP2;P2;SDS_P1;SDS_P2;PMS_P1;PMS_P2;Temp;Humidity;BMP_temperature;BMP_pressure;BME280_temperature;BME280_humidity;BME280_pressure;Samples;Min_cycle;Max_cycle;Signal;HPM_P1;HPM_P2
2022/01/29 00:01:16;;;;;;;;;;;;;;;5.31;64.34;100733.28;1729711;81;20613;-79
2022/01/29 00:03:42;;;;;;;;;;;;;;;5.26;64.58;100745.87;1730935;81;21128;-83
2022/01/29 00:06:10;;;;;;;;;;;;;;;5.18;64.97;100749.02;1729965;81;20201;-80
2022/01/29 00:08:39;;;;;;;;;;;;;;;5.45;64.62;100748.03;1722901;82;20154;-80
2022/01/29 00:11:14;;;;;;;;;;;;;;;5.63;64.07;100752.45;1730998;81;20286;-81
2022/01/29 00:13:35;;;;;;;;;;;;;;;5.54;64.15;100740.83;1721936;82;21018;-79
2022/01/29 00:16:04;;;;;;;;;;;;;;;5.45;64.73;100749.34;1726105;81;21198;-83
2022/01/29 00:18:30;;;;;;;;;;;;;;;5.25;65.30;100754.21;1732594;81;20704;-79
2022/01/29 00:20:55;;;;;;;;;;;;;;;5.48;65.07;100754.36;1731198;82;21071;-81
2022/01/29 00:23:21;;;;;;;;;;;;;;;5.63;64.76;100745.42;1727170;81;20512;-81
2022/01/29 00:25:47;;;;;;;;;;;;;;;5.34;65.46;100754.84;1714172;82;20185;-84
2022/01/29 00:28:13;;;;;;;;;;;;;;;5.35;65.62;100756.53;1725994;82;21280;-81
2022/01/29 00:30:42;;;;;;;;;;;;;;;5.34;65.89;100756.16;1732678;81;20166;-80
2022/01/29 00:33:06;;;;;;;;;;;;;;;4.97;67.14;100773.13;1725193;82;20453;-81
2022/01/29 00:35:32;;;;;;;;;;;;;;;5.07;66.75;100764.16;1728486;82;20155;-79
2022/01/29 00:37:58;;;;;;;;;;;;;;;5.29;66.33;100771.37;1734192;80;20484;-81
2022/01/29 00:40:24;;;;;;;;;;;;;;;5.19;66.39;100769.04;1729442;80;23255;-79
2022/01/29 00:42:50;;;;;;;;;;;;;;;5.40;66.04;100764.89;1760134;80;20171;-85
2022/01/29 00:45:18;;;;;;;;;;;;;;;5.18;66.66;100760.81;1763223;80;20191;-80
2022/01/29 00:47:45;;;;;;;;;;;;;;;4.85;67.38;100772.17;1760768;81;20184;-81
2022/01/29 00:50:11;;;;;;;;;;;;;;;4.76;67.98;100768.86;1761396;80;20222;-81
2022/01/29 00:52:38;;;;;;;;;;;;;;;5.18;67.09;100766.88;1733284;81;21138;-82
2022/01/29 00:55:05;;;;;;;;;;;;;;;4.96;67.53;100762.28;1758370;81;20626;-85
2022/01/29 00:57:33;;;;;;;;;;;;;;;4.89;67.72;100757.09;1756940;81;20528;-80
2022/01/29 00:59:58;;;;;;;;;;;;;;;5.18;67.06;100762.12;1762400;80;20688;-83
2022/01/29 01:02:24;;;;;;;;;;;;;;;5.19;66.88;100758.56;1757065;80;20170;-80
2022/01/29 01:04:49;;;;;;;;;;;;;;;5.12;66.92;100755.99;1758071;80;21062;-81
2022/01/29 01:07:15;;;;;;;;;;;;;;;4.94;67.71;100761.56;1757996;81;20160;-82
2022/01/29 01:09:40;;;;;;;;;;;;;;;4.94;67.73;100761.56;1758744;81;20166;-79
2022/01/29 01:12:06;;;;;;;;;;;;;;;4.88;67.88;100763.28;1757541;81;20124;-81
2022/01/29 01:14:32;;;;;;;;;;;;;;;4.98;67.61;100761.70;1758331;80;20184;-80
2022/01/29 01:16:58;;;;;;;;;;;;;;;4.83;68.03;100745.73;1756225;80;21214;-79
2022/01/29 01:19:25;;;;;;;;;;;;;;;5.25;66.71;100748.98;1758026;80;20186;-88
2022/01/29 01:21:53;;;;;;;;;;;;;;;4.87;67.85;100739.84;1760341;79;20575;-82
2022/01/29 01:24:18;;;;;;;;;;;;;;;4.83;67.70;100760.98;1750123;81;20175;-78
2022/01/29 01:26:44;;;;;;;;;;;;;;;4.85;68.00;100737.32;1783733;79;20208;-81
2022/01/29 01:29:10;;;;;;;;;;;;;;;5.15;67.10;100736.97;1732949;80;21162;-79
2022/01/29 01:31:36;;;;;;;;;;;;;;;4.87;68.09;100740.66;1783327;77;20820;-79
2022/01/29 01:34:04;;;;;;;;;;;;;;;4.80;68.19;100738.94;1784218;79;20210;-82
2022/01/29 01:36:30;;;;;;;;;;;;;;;4.74;68.37;100743.73;1786035;79;20481;-82
2022/01/29 01:39:03;;;;;;;;;;;;;;;4.67;68.99;100734.98;1785074;78;20105;-81
2022/01/29 01:41:26;;;;;;;;;;;;;;;4.99;68.01;100741.61;1789404;79;20177;-79
2022/01/29 01:43:51;;;;;;;;;;;;;;;4.96;67.63;100736.11;1788260;78;20499;-80
2022/01/29 01:46:16;;;;;;;;;;;;;;;5.26;66.93;100733.61;1785896;78;20253;-84
2022/01/29 01:48:42;;;;;;;;;;;;;;;5.03;67.45;100728.20;1790567;78;20144;-80
2022/01/29 01:51:07;;;;;;;;;;;;;;;4.80;67.91;100728.92;1788492;78;20177;-80
2022/01/29 01:53:33;;;;;;;;;;;;;;;5.16;67.49;100719.50;1788377;78;21157;-81
2022/01/29 01:55:58;;;;;;;;;;;;;;;5.10;67.24;100716.00;1788518;79;20656;-83
2022/01/29 01:58:24;;;;;;;;;;;;;;;5.10;67.35;100719.93;1790495;78;20173;-82
2022/01/29 02:00:50;;;;;;;;;;;;;;;5.19;67.17;100717.98;1784087;79;20179;-81
2022/01/29 02:03:15;;;;;;;;;;;;;;;5.10;67.23;100720.76;1789278;78;20517;-81
2022/01/29 02:05:43;;;;;;;;;;;;;;;5.32;66.78;100717.47;1785048;78;21841;-82
2022/01/29 02:08:10;;;;;;;;;;;;;;;5.08;67.46;100716.56;1792420;79;20947;-82
2022/01/29 02:10:35;;;;;;;;;;;;;;;4.68;68.64;100725.38;1787640;79;20125;-84
2022/01/29 02:13:03;;;;;;;;;;;;;;;4.91;68.37;100730.36;1790806;79;20108;-83
2022/01/29 02:15:29;;;;;;;;;;;;;;;5.13;67.79;100722.34;1789894;79;20133;-84
2022/01/29 02:17:55;;;;;;;;;;;;;;;5.04;68.10;100719.39;1793757;78;21072;-86
2022/01/29 02:20:23;;;;;;;;;;;;;;;4.91;68.71;100721.20;1791186;78;20102;-83
2022/01/29 02:22:49;;;;;;;;;;;;;;;5.08;68.30;100716.56;1792830;79;20247;-81
2022/01/29 02:25:38;;;;;;;;;;;;;;;4.96;68.55;100719.09;1788519;79;20582;-80
2022/01/29 02:28:12;;;;;;;;;;;;;;;4.63;69.81;100715.23;1788040;79;20190;-81
2022/01/29 02:30:40;;;;;;;;;;;;;;;4.74;69.76;100718.87;1785431;79;21747;-82
2022/01/29 02:33:09;;;;;;;;;;;;;;;4.67;69.43;100721.91;1785557;79;20654;-81
2022/01/29 02:35:39;;;;;;;;;;;;;;;4.73;69.87;100719.84;1787600;79;20146;-80
2022/01/29 02:38:06;;;;;;;;;;;;;;;4.43;70.50;100719.19;1784347;79;20160;-81
2022/01/29 02:40:38;;;;;;;;;;;;;;;4.48;70.87;100725.41;1784154;79;20231;-80
2022/01/29 02:43:16;;;;;;;;;;;;;;;4.79;69.73;100735.13;1782687;78;20105;-81
2022/01/29 02:45:46;;;;;;;;;;;;;;;4.63;70.31;100725.69;1781693;78;20133;-81
2022/01/29 02:48:13;;;;;;;;;;;;;;;4.31;71.29;100731.28;1783559;78;20130;-81
2022/01/29 02:50:41;;;;;;;;;;;;;;;4.59;70.11;100721.59;1788096;78;20218;-82
2022/01/29 02:53:08;;;;;;;;;;;;;;;4.58;70.55;100723.84;1781313;78;20120;-81
2022/01/29 02:55:36;;;;;;;;;;;;;;;4.51;70.74;100722.59;1782755;78;21181;-82
2022/01/29 02:58:01;;;;;;;;;;;;;;;4.38;71.07;100723.89;1787387;78;20470;-83
2022/01/29 03:00:28;;;;;;;;;;;;;;;4.48;70.65;100726.24;1782604;78;20122;-80
2022/01/29 03:02:54;;;;;;;;;;;;;;;4.48;70.95;100731.95;1794299;78;20210;-80
2022/01/29 03:05:21;;;;;;;;;;;;;;;4.36;71.38;100723.61;1781207;79;20114;-83
2022/01/29 03:07:47;;;;;;;;;;;;;;;4.58;70.83;100716.47;1791118;78;21942;-84
2022/01/29 03:10:14;;;;;;;;;;;;;;;4.34;71.46;100724.20;1787269;78;20148;-83
2022/01/29 03:12:41;;;;;;;;;;;;;;;4.51;70.99;100719.15;1785774;78;20141;-81
2022/01/29 03:15:09;;;;;;;;;;;;;;;4.24;71.82;100720.02;1781382;79;20266;-82
2022/01/29 03:17:35;;;;;;;;;;;;;;;4.33;71.53;100722.51;1782345;78;20136;-80
2022/01/29 03:20:01;;;;;;;;;;;;;;;4.62;70.72;100719.26;1796484;78;21056;-81
2022/01/29 03:22:29;;;;;;;;;;;;;;;4.56;70.84;100714.44;1787071;78;20140;-82
2022/01/29 03:24:55;;;;;;;;;;;;;;;4.22;72.27;100718.81;1781800;79;20191;-79
2022/01/29 03:27:22;;;;;;;;;;;;;;;4.49;71.04;100716.16;1786597;79;20246;-85
2022/01/29 03:29:48;;;;;;;;;;;;;;;4.15;71.78;100720.17;1786236;79;20203;-82
2022/01/29 03:32:16;;;;;;;;;;;;;;;4.29;71.64;100722.72;1786566;78;21064;-81
2022/01/29 03:34:43;;;;;;;;;;;;;;;4.53;71.18;100714.16;1782830;79;20148;-81
2022/01/29 03:37:09;;;;;;;;;;;;;;;4.47;71.38;100708.89;1779994;78;20180;-82
2022/01/29 03:39:36;;;;;;;;;;;;;;;4.38;71.70;100700.80;1780630;79;20171;-83
2022/01/29 03:42:07;;;;;;;;;;;;;;;4.53;71.16;100708.11;1783378;79;20178;-82
2022/01/29 03:44:31;;;;;;;;;;;;;;;4.61;70.66;100706.62;1787241;79;20201;-81
2022/01/29 03:46:57;;;;;;;;;;;;;;;4.57;70.90;100710.41;1791107;78;20181;-82
2022/01/29 03:49:23;;;;;;;;;;;;;;;4.56;71.00;100700.05;1784112;79;20280;-82
2022/01/29 03:51:48;;;;;;;;;;;;;;;4.58;70.76;100725.14;1785787;79;20111;-81
2022/01/29 03:54:14;;;;;;;;;;;;;;;4.15;71.94;100725.41;1787775;79;20127;-82
2022/01/29 03:56:39;;;;;;;;;;;;;;;4.45;71.25;100725.62;1784464;79;21114;-82
2022/01/29 03:59:05;;;;;;;;;;;;;;;4.21;71.67;100722.84;1784737;79;20530;-82
2022/01/29 04:01:30;;;;;;;;;;;;;;;4.19;72.06;100729.47;1789617;79;20149;-82
2022/01/29 04:03:57;;;;;;;;;;;;;;;4.33;71.56;100735.58;1784956;79;20623;-82
2022/01/29 04:06:23;;;;;;;;;;;;;;;4.36;71.73;100728.84;1789272;79;20221;-81
2022/01/29 04:08:49;;;;;;;;;;;;;;;4.58;70.76;100730.38;1786363;79;21951;-84
2022/01/29 04:11:15;;;;;;;;;;;;;;;4.30;71.49;100733.55;1785675;79;20247;-83
2022/01/29 04:13:44;;;;;;;;;;;;;;;4.24;71.76;100735.26;1785009;79;20237;-81
2022/01/29 04:16:09;;;;;;;;;;;;;;;4.18;72.12;100735.66;1785805;79;20465;-81
2022/01/29 04:18:34;;;;;;;;;;;;;;;4.33;71.46;100730.35;1786429;79;20163;-82
2022/01/29 04:21:01;;;;;;;;;;;;;;;4.45;71.25;100718.60;1786597;79;21106;-81
2022/01/29 04:23:26;;;;;;;;;;;;;;;4.30;71.70;100719.17;1781945;79;20234;-84
2022/01/29 04:25:53;;;;;;;;;;;;;;;4.31;71.66;100719.52;1781535;79;21152;-82
2022/01/29 04:28:21;;;;;;;;;;;;;;;4.33;71.32;100706.82;1789203;79;20289;-81
2022/01/29 04:30:53;;;;;;;;;;;;;;;4.38;71.24;100711.27;1787157;79;20155;-84
2022/01/29 04:33:28;;;;;;;;;;;;;;;4.55;70.98;100704.42;1783109;79;21141;-82
2022/01/29 04:35:42;;;;;;;;;;;;;;;4.20;72.14;100702.41;1780708;79;20956;-81
2022/01/29 04:38:07;;;;;;;;;;;;;;;4.54;71.00;100700.16;1787704;79;20204;-80
2022/01/29 04:40:35;;;;;;;;;;;;;;;4.13;72.29;100706.34;1785890;79;21182;-80
2022/01/29 04:43:02;;;;;;;;;;;;;;;4.33;71.62;100697.67;1788860;79;20190;-80
2022/01/29 04:45:28;;;;;;;;;;;;;;;4.19;72.20;100700.72;1785391;79;21136;-82
2022/01/29 04:47:54;;;;;;;;;;;;;;;4.01;72.68;100698.00;1785052;79;20198;-81
2022/01/29 04:50:19;;;;;;;;;;;;;;;4.19;72.07;100696.80;1784470;79;20732;-80
2022/01/29 04:52:45;;;;;;;;;;;;;;;3.96;72.68;100690.47;1784086;79;20134;-80
2022/01/29 04:55:11;;;;;;;;;;;;;;;4.24;72.07;100689.51;1783177;79;20159;-80
2022/01/29 04:57:37;;;;;;;;;;;;;;;4.22;72.05;100693.98;1786077;79;20972;-80
2022/01/29 05:00:09;;;;;;;;;;;;;;;4.25;72.01;100700.31;1789413;78;20116;-85
2022/01/29 05:02:35;;;;;;;;;;;;;;;4.08;72.40;100703.20;1787243;79;20452;-79
2022/01/29 05:05:01;;;;;;;;;;;;;;;3.92;72.64;100693.75;1786003;79;20181;-81
2022/01/29 05:07:27;;;;;;;;;;;;;;;3.95;72.98;100689.64;1785123;78;20177;-81
2022/01/29 05:09:52;;;;;;;;;;;;;;;4.14;72.29;100687.13;1784641;79;21063;-79
2022/01/29 05:12:24;;;;;;;;;;;;;;;3.97;73.12;100672.55;1787232;78;20517;-79
2022/01/29 05:15:13;;;;;;;;;;;;;;;4.04;72.73;100679.06;1783411;79;20120;-82
2022/01/29 05:28:07;;;;;;;;;;;;;;;4.14;72.21;100679.28;1784950;79;20122;-80
2022/01/29 05:30:33;;;;;;;;;;;;;;;4.24;71.94;100679.05;1787570;79;20130;-80
2022/01/29 05:32:58;;;;;;;;;;;;;;;3.99;72.48;100682.91;1790041;78;20145;-80
2022/01/29 05:35:24;;;;;;;;;;;;;;;4.13;72.32;100673.23;1787361;79;21195;-81
2022/01/29 05:37:50;;;;;;;;;;;;;;;4.35;71.96;100665.71;1781381;79;20260;-80
2022/01/29 05:40:16;;;;;;;;;;;;;;;4.25;71.62;100668.94;1785970;78;20128;-80
2022/01/29 05:42:42;;;;;;;;;;;;;;;4.00;72.25;100663.69;1785487;79;20242;-81
2022/01/29 05:45:07;;;;;;;;;;;;;;;4.31;71.45;100655.46;1777680;79;20147;-88
2022/01/29 05:47:35;;;;;;;;;;;;;;;3.95;72.70;100654.36;1784344;79;21210;-80
2022/01/29 05:50:02;;;;;;;;;;;;;;;4.25;71.75;100661.09;1785725;78;20168;-80
2022/01/29 05:52:28;;;;;;;;;;;;;;;4.02;72.27;100651.34;1781074;78;20112;-81
2022/01/29 05:54:53;;;;;;;;;;;;;;;4.04;72.39;100655.99;1788200;79;20134;-80
2022/01/29 05:57:19;;;;;;;;;;;;;;;3.88;72.66;100658.30;1785246;78;20509;-81
2022/01/29 05:59:45;;;;;;;;;;;;;;;3.69;73.25;100656.54;1782748;78;21067;-80
2022/01/29 06:02:10;;;;;;;;;;;;;;;3.81;73.01;100662.72;1780048;79;20460;-79
2022/01/29 06:04:36;;;;;;;;;;;;;;;3.56;73.76;100651.28;1785627;79;20145;-80
2022/01/29 06:07:02;;;;;;;;;;;;;;;3.83;73.43;100655.64;1786175;79;20205;-81
2022/01/29 06:09:27;;;;;;;;;;;;;;;3.93;72.88;100643.19;1785149;79;20187;-80
2022/01/29 06:11:53;;;;;;;;;;;;;;;3.69;73.32;100646.09;1785469;79;21064;-84
2022/01/29 06:14:18;;;;;;;;;;;;;;;3.90;72.79;100656.45;1788649;79;20496;-79
2022/01/29 06:16:44;;;;;;;;;;;;;;;3.68;73.23;100646.57;1783583;79;20159;-80
2022/01/29 06:19:09;;;;;;;;;;;;;;;3.83;72.95;100651.25;1778033;79;20181;-80
2022/01/29 06:21:35;;;;;;;;;;;;;;;3.70;73.28;100649.08;1781987;78;20623;-79
2022/01/29 06:24:02;;;;;;;;;;;;;;;3.34;74.17;100655.25;1786162;79;21731;-81
2022/01/29 06:26:27;;;;;;;;;;;;;;;3.43;74.41;100643.37;1775503;79;20739;-80
2022/01/29 06:28:53;;;;;;;;;;;;;;;3.52;74.42;100644.09;1785970;79;20135;-79
2022/01/29 06:31:19;;;;;;;;;;;;;;;3.84;73.21;100638.56;1784170;79;20588;-79
2022/01/29 06:33:44;;;;;;;;;;;;;;;3.50;74.03;100629.00;1786358;79;20110;-81
2022/01/29 06:36:10;;;;;;;;;;;;;;;3.64;73.52;100635.12;1785748;78;21267;-82
2022/01/29 06:38:35;;;;;;;;;;;;;;;3.80;73.10;100639.69;1779823;79;20259;-86
2022/01/29 06:41:01;;;;;;;;;;;;;;;3.82;73.00;100635.19;1790671;78;20186;-81
2022/01/29 06:43:28;;;;;;;;;;;;;;;3.58;73.57;100650.22;1786326;79;20134;-82
2022/01/29 06:45:54;;;;;;;;;;;;;;;3.79;73.16;100652.38;1784125;79;20429;-79
2022/01/29 06:48:19;;;;;;;;;;;;;;;3.81;73.19;100651.83;1784773;79;21081;-80
2022/01/29 06:50:45;;;;;;;;;;;;;;;3.91;72.67;100655.49;1787152;79;20496;-78
2022/01/29 06:53:11;;;;;;;;;;;;;;;3.98;72.29;100659.01;1784532;79;20188;-79
2022/01/29 06:55:36;;;;;;;;;;;;;;;3.97;72.37;100654.74;1784860;79;20195;-81
2022/01/29 06:58:02;;;;;;;;;;;;;;;3.89;72.47;100659.99;1786386;79;20149;-78
2022/01/29 07:00:27;;;;;;;;;;;;;;;3.70;73.00;100667.37;1782702;79;21057;-80
2022/01/29 07:02:53;;;;;;;;;;;;;;;3.66;72.99;100661.48;1791457;78;20170;-82
2022/01/29 07:05:19;;;;;;;;;;;;;;;3.98;72.17;100653.34;1786337;79;20179;-86
2022/01/29 07:07:44;;;;;;;;;;;;;;;3.84;72.79;100662.52;1785804;79;20127;-81
2022/01/29 07:10:10;;;;;;;;;;;;;;;4.01;72.03;100644.44;1787381;79;21162;-79
2022/01/29 07:12:39;;;;;;;;;;;;;;;3.76;72.73;100640.37;1782002;79;21825;-78
2022/01/29 07:15:10;;;;;;;;;;;;;;;3.82;72.57;100636.98;1788236;78;20484;-82
2022/01/29 07:17:35;;;;;;;;;;;;;;;3.92;72.34;100631.05;1787604;79;20222;-81
2022/01/29 07:20:01;;;;;;;;;;;;;;;4.08;72.22;100619.58;1782010;79;20867;-86
2022/01/29 07:22:26;;;;;;;;;;;;;;;4.45;70.82;100608.77;1786746;79;20196;-78
2022/01/29 07:24:52;;;;;;;;;;;;;;;4.36;70.88;100617.72;1786546;78;21121;-79
2022/01/29 07:27:18;;;;;;;;;;;;;;;4.13;71.46;100610.95;1790557;77;20390;-84
2022/01/29 07:29:43;;;;;;;;;;;;;;;4.38;70.97;100602.75;1785701;79;20186;-80
2022/01/29 07:32:09;;;;;;;;;;;;;;;4.32;71.05;100606.64;1790465;78;20112;-82
2022/01/29 07:34:34;;;;;;;;;;;;;;;4.22;71.65;100586.80;1790046;79;20205;-84
2022/01/29 07:37:00;;;;;;;;;;;;;;;4.58;70.42;100586.52;1784870;79;21068;-78
2022/01/29 07:39:26;;;;;;;;;;;;;;;4.24;71.32;100591.92;1786200;78;20598;-81
2022/01/29 07:41:51;;;;;;;;;;;;;;;4.09;71.89;100588.59;1786026;79;20318;-80
2022/01/29 07:44:17;;;;;;;;;;;;;;;4.28;71.65;100581.64;1787090;79;21017;-84
2022/01/29 07:46:43;;;;;;;;;;;;;;;4.53;70.82;100577.34;1784805;79;20163;-82
2022/01/29 07:49:09;;;;;;;;;;;;;;;4.50;70.38;100570.53;1787940;79;21191;-81
2022/01/29 07:51:35;;;;;;;;;;;;;;;4.18;71.56;100568.38;1787328;78;20196;-81
2022/01/29 07:54:01;;;;;;;;;;;;;;;4.25;71.68;100551.30;1787236;79;20168;-82
2022/01/29 07:56:26;;;;;;;;;;;;;;;4.45;71.15;100559.56;1790859;79;20229;-82
2022/01/29 07:58:52;;;;;;;;;;;;;;;4.55;70.37;100560.58;1783878;79;20468;-80
2022/01/29 08:01:18;;;;;;;;;;;;;;;4.47;70.90;100558.52;1792115;79;21150;-79
2022/01/29 08:03:48;;;;;;;;;;;;;;;4.65;70.65;100553.77;1785884;79;20345;-80
2022/01/29 08:06:14;;;;;;;;;;;;;;;4.74;70.03;100543.59;1784102;79;20101;-82
2022/01/29 08:08:40;;;;;;;;;;;;;;;4.94;69.58;100544.34;1788384;79;20158;-82
2022/01/29 08:11:07;;;;;;;;;;;;;;;4.89;69.58;100542.50;1786200;79;20261;-83
2022/01/29 08:13:33;;;;;;;;;;;;;;;4.90;69.67;100535.02;1789709;79;22447;-80
2022/01/29 08:15:58;;;;;;;;;;;;;;;4.89;69.91;100532.03;1786651;79;20131;-81
2022/01/29 08:18:24;;;;;;;;;;;;;;;5.18;69.15;100536.95;1784671;79;20159;-82
2022/01/29 08:20:49;;;;;;;;;;;;;;;5.07;69.55;100539.53;1788145;79;20119;-82
2022/01/29 08:23:15;;;;;;;;;;;;;;;4.92;70.27;100528.37;1782952;79;20611;-79
2022/01/29 08:25:41;;;;;;;;;;;;;;;5.38;68.67;100531.09;1785461;79;22517;-79
2022/01/29 08:28:06;;;;;;;;;;;;;;;5.34;68.83;100538.80;1787304;79;20121;-79
2022/01/29 08:30:32;;;;;;;;;;;;;;;5.52;68.78;100530.55;1785794;79;20147;-80
2022/01/29 08:32:58;;;;;;;;;;;;;;;5.06;69.65;100527.38;1782668;79;20112;-81
2022/01/29 08:35:24;;;;;;;;;;;;;;;5.03;69.79;100515.34;1786840;79;20219;-78
2022/01/29 08:37:49;;;;;;;;;;;;;;;5.28;69.73;100519.61;1787782;79;21046;-78
2022/01/29 08:40:15;;;;;;;;;;;;;;;5.13;69.90;100508.98;1789822;79;20169;-79
2022/01/29 08:42:40;;;;;;;;;;;;;;;5.31;69.85;100507.59;1785412;79;20662;-80
2022/01/29 08:45:07;;;;;;;;;;;;;;;5.45;69.52;100505.75;1789792;79;20612;-80
2022/01/29 08:47:32;;;;;;;;;;;;;;;5.51;69.24;100509.22;1784641;78;20494;-80
2022/01/29 08:49:58;;;;;;;;;;;;;;;5.82;68.49;100502.98;1785854;79;21076;-79
2022/01/29 08:52:24;;;;;;;;;;;;;;;5.94;68.28;100492.88;1784099;77;20193;-79
2022/01/29 08:54:49;;;;;;;;;;;;;;;5.53;69.21;100483.73;1782156;79;20248;-80
2022/01/29 08:57:15;;;;;;;;;;;;;;;5.58;69.40;100497.34;1784793;79;20163;-81
2022/01/29 08:59:41;;;;;;;;;;;;;;;6.10;68.30;100487.31;1778434;78;20556;-78
2022/01/29 09:02:06;;;;;;;;;;;;;;;6.11;67.89;100479.33;1783037;79;21047;-81
2022/01/29 09:04:32;;;;;;;;;;;;;;;6.45;67.38;100471.44;1784937;79;20464;-80
2022/01/29 09:06:58;;;;;;;;;;;;;;;6.11;68.10;100488.99;1785460;78;20126;-78
2022/01/29 09:09:26;;;;;;;;;;;;;;;5.98;68.70;100491.73;1785787;79;20099;-78
2022/01/29 09:11:51;;;;;;;;;;;;;;;5.84;69.09;100506.31;1785900;79;20161;-77
2022/01/29 09:14:17;;;;;;;;;;;;;;;5.97;69.13;100471.70;1785990;79;21193;-84
2022/01/29 09:16:43;;;;;;;;;;;;;;;5.95;68.96;100476.21;1784464;79;20757;-80
2022/01/29 09:19:09;;;;;;;;;;;;;;;6.34;68.20;100481.95;1785677;79;20149;-82
2022/01/29 09:21:34;;;;;;;;;;;;;;;6.27;68.35;100470.27;1783607;77;20527;-81
2022/01/29 09:24:00;;;;;;;;;;;;;;;6.47;67.98;100462.96;1787448;79;20231;-79
2022/01/29 09:26:25;;;;;;;;;;;;;;;6.75;67.23;100468.63;1782569;79;21189;-82
2022/01/29 09:28:51;;;;;;;;;;;;;;;6.60;67.93;100475.11;1783571;79;20152;-79
2022/01/29 09:31:16;;;;;;;;;;;;;;;6.68;67.40;100463.54;1787948;79;20159;-81
2022/01/29 09:33:42;;;;;;;;;;;;;;;6.78;67.10;100468.38;1783864;79;20154;-80
2022/01/29 09:36:07;;;;;;;;;;;;;;;6.96;66.82;100450.77;1784099;79;20178;-79
2022/01/29 09:38:34;;;;;;;;;;;;;;;7.07;66.93;100450.75;1786271;79;21068;-80
2022/01/29 09:40:59;;;;;;;;;;;;;;;6.97;66.78;100447.20;1788217;78;20103;-80
2022/01/29 09:43:28;;;;;;;;;;;;;;;6.81;67.53;100449.77;1793502;78;20143;-80
2022/01/29 09:45:54;;;;;;;;;;;;;;;6.77;67.56;100449.64;1794084;78;20181;-80
2022/01/29 09:48:23;;;;;;;;;;;;;;;7.00;67.02;100444.33;1791895;78;20173;-82
2022/01/29 09:50:50;;;;;;;;;;;;;;;7.12;66.74;100435.44;1793576;78;21077;-79
2022/01/29 09:53:15;;;;;;;;;;;;;;;7.13;66.47;100425.76;1795908;79;20171;-79
2022/01/29 09:55:43;;;;;;;;;;;;;;;6.98;67.22;100413.44;1793187;79;20201;-81
2022/01/29 09:58:09;;;;;;;;;;;;;;;7.09;66.93;100406.80;1791855;78;21055;-79
2022/01/29 10:00:35;;;;;;;;;;;;;;;7.24;66.73;100392.89;1792442;79;20124;-79
2022/01/29 10:03:14;;;;;;;;;;;;;;;7.16;67.02;100395.30;1793891;78;21170;-83
2022/01/29 10:05:41;;;;;;;;;;;;;;;7.19;66.60;100402.47;1791750;78;20542;-80
2022/01/29 10:08:07;;;;;;;;;;;;;;;7.47;66.37;100377.81;1794621;78;20076;-84
2022/01/29 10:10:43;;;;;;;;;;;;;;;7.59;65.71;100377.23;1792021;78;20162;-83
2022/01/29 10:13:29;;;;;;;;;;;;;;;7.39;66.14;100374.98;1794133;79;20690;-83
2022/01/29 10:16:21;;;;;;;;;;;;;;;7.55;65.39;100375.82;1791975;79;21081;-81
2022/01/29 10:18:49;;;;;;;;;;;;;;;7.83;65.42;100356.36;1794540;79;20119;-82
2022/01/29 10:21:22;;;;;;;;;;;;;;;7.91;64.36;100354.73;1794023;78;20166;-82
2022/01/29 10:23:48;;;;;;;;;;;;;;;7.65;64.77;100354.86;1796396;79;20124;-82
2022/01/29 10:26:31;;;;;;;;;;;;;;;7.49;65.78;100335.15;1795434;79;20216;-77
2022/01/29 10:28:57;;;;;;;;;;;;;;;8.03;64.46;100332.27;1792353;79;21100;-79
2022/01/29 10:31:22;;;;;;;;;;;;;;;8.16;63.87;100330.23;1793799;78;20151;-79
2022/01/29 10:33:48;;;;;;;;;;;;;;;8.22;63.89;100320.97;1795093;79;20604;-78
2022/01/29 10:36:15;;;;;;;;;;;;;;;8.25;64.01;100305.73;1793454;79;20588;-78
2022/01/29 10:38:44;;;;;;;;;;;;;;;8.46;63.40;100302.17;1795886;78;20183;-76
2022/01/29 10:41:29;;;;;;;;;;;;;;;9.05;62.25;100300.78;1792530;79;21141;-77
2022/01/29 10:46:52;;;;;;;;;;;;;;;8.61;62.72;100295.52;1761897;79;20201;-79
2022/01/29 10:49:29;;;;;;;;;;;;;;;8.41;62.94;100289.39;1781335;78;20278;-78
2022/01/29 10:52:06;;;;;;;;;;;;;;;8.44;63.02;100274.67;1782633;78;20149;-80
2022/01/29 10:54:33;;;;;;;;;;;;;;;8.08;64.22;100280.11;1780438;78;21894;-77
2022/01/29 10:57:14;;;;;;;;;;;;;;;8.69;62.98;100259.77;1780243;78;20196;-78
2022/01/29 10:59:50;;;;;;;;;;;;;;;8.72;62.62;100252.91;1784420;79;20128;-77
2022/01/29 11:02:16;;;;;;;;;;;;;;;8.85;62.19;100248.64;1782380;79;20091;-78
2022/01/29 11:04:42;;;;;;;;;;;;;;;9.29;61.42;100240.52;1785640;78;20173;-77
2022/01/29 11:07:15;;;;;;;;;;;;;;;9.54;60.70;100232.91;1783149;78;21174;-77
2022/01/29 11:09:40;;;;;;;;;;;;;;;9.49;60.28;100226.77;1777116;78;20194;-75
2022/01/29 11:12:07;;;;;;;;;;;;;;;9.37;60.86;100225.77;1779173;78;20113;-77
2022/01/29 11:14:33;;;;;;;;;;;;;;;9.94;59.95;100219.78;1779909;79;20171;-78
2022/01/29 11:16:59;;;;;;;;;;;;;;;9.96;59.46;100215.21;1781496;79;20299;-77
2022/01/29 11:19:25;;;;;;;;;;;;;;;9.79;59.57;100213.37;1783518;79;20971;-77
2022/01/29 11:21:52;;;;;;;;;;;;;;;9.49;60.25;100204.36;1783855;79;20734;-79
2022/01/29 11:24:18;;;;;;;;;;;;;;;9.46;59.83;100199.84;1785621;78;20544;-78
2022/01/29 11:26:45;;;;;;;;;;;;;;;9.28;60.40;100184.83;1781152;79;20215;-76
2022/01/29 11:29:35;;;;;;;;;;;;;;;9.50;59.74;100182.77;1787361;78;20167;-76
2022/01/29 11:32:25;;;;;;;;;;;;;;;9.36;59.80;100189.36;1782007;79;21968;-76
2022/01/29 11:35:17;;;;;;;;;;;;;;;9.61;59.29;100179.91;1778471;79;20518;-76
2022/01/29 11:38:05;;;;;;;;;;;;;;;9.59;59.19;100162.61;1734780;79;20182;-76
2022/01/29 11:40:57;;;;;;;;;;;;;;;9.15;60.17;100171.16;1778884;78;21000;-77
2022/01/29 11:43:27;;;;;;;;;;;;;;;9.22;60.14;100163.02;1781855;78;20182;-78
2022/01/29 11:46:04;;;;;;;;;;;;;;;8.66;61.31;100154.25;1783306;79;21926;-77
2022/01/29 11:48:32;;;;;;;;;;;;;;;8.86;61.37;100148.43;1779058;79;20933;-75
2022/01/29 11:50:58;;;;;;;;;;;;;;;8.45;61.79;100141.28;1782014;79;20165;-79
2022/01/29 11:53:25;;;;;;;;;;;;;;;8.88;60.97;100125.41;1782115;79;20619;-77
2022/01/29 11:55:52;;;;;;;;;;;;;;;8.23;62.48;100122.22;1782028;78;20490;-78
2022/01/29 11:58:21;;;;;;;;;;;;;;;8.37;62.42;100118.77;1787203;78;21082;-78
2022/01/29 12:00:51;;;;;;;;;;;;;;;8.17;63.30;100113.57;1786518;78;20190;-77
2022/01/29 12:03:45;;;;;;;;;;;;;;;8.39;62.60;100095.77;1782318;79;20651;-77
2022/01/29 12:09:21;;;;;;;;;;;;;;;8.34;63.09;100088.30;1787685;78;20216;-76
2022/01/29 12:12:05;;;;;;;;;;;;;;;8.70;62.38;100081.07;1784177;79;21113;-77
2022/01/29 12:14:30;;;;;;;;;;;;;;;8.85;62.13;100082.25;1754760;79;20197;-79
2022/01/29 12:16:58;;;;;;;;;;;;;;;8.80;62.59;100060.30;1786660;78;20214;-79
2022/01/29 12:19:44;;;;;;;;;;;;;;;9.24;61.36;100066.20;1791534;78;20298;-80
2022/01/29 12:22:14;;;;;;;;;;;;;;;9.13;61.62;100050.12;1782879;79;21128;-78
2022/01/29 12:24:41;;;;;;;;;;;;;;;9.49;61.20;100049.30;1784264;79;20926;-78
2022/01/29 12:27:07;;;;;;;;;;;;;;;9.19;61.81;100043.93;1786131;79;20199;-78
2022/01/29 12:29:33;;;;;;;;;;;;;;;9.29;61.66;100040.25;1787547;79;20207;-79
2022/01/29 12:31:59;;;;;;;;;;;;;;;8.73;62.82;100046.09;1783110;78;20522;-77
2022/01/29 12:34:25;;;;;;;;;;;;;;;8.64;63.02;100032.48;1787043;78;20213;-77
2022/01/29 12:36:51;;;;;;;;;;;;;;;9.03;62.86;100034.89;1787213;78;21128;-78
2022/01/29 12:39:23;;;;;;;;;;;;;;;8.33;64.75;100019.58;1785177;78;20142;-80
2022/01/29 12:42:06;;;;;;;;;;;;;;;9.00;63.23;100010.16;1777999;78;20149;-82
2022/01/29 12:44:28;;;;;;;;;;;;;;;9.02;63.32;100010.83;1780980;79;20183;-77
2022/01/29 12:46:53;;;;;;;;;;;;;;;8.48;65.01;99998.88;1790369;78;20159;-77
2022/01/29 12:49:19;;;;;;;;;;;;;;;8.53;64.51;99987.45;1785697;78;21064;-77
2022/01/29 12:51:55;;;;;;;;;;;;;;;8.59;64.74;99980.75;1784757;78;20175;-77
2022/01/29 12:54:22;;;;;;;;;;;;;;;8.40;65.75;99968.50;1794086;78;20145;-78
2022/01/29 12:56:48;;;;;;;;;;;;;;;8.63;65.02;99969.78;1783331;78;20076;-79
2022/01/29 12:59:14;;;;;;;;;;;;;;;8.47;65.38;99963.04;1789277;79;20114;-78
2022/01/29 13:01:41;;;;;;;;;;;;;;;8.37;65.82;99973.56;1789394;79;21871;-81
2022/01/29 13:04:12;;;;;;;;;;;;;;;8.35;66.49;99951.02;1786680;78;20525;-79
2022/01/29 13:06:37;;;;;;;;;;;;;;;8.39;66.34;99940.52;1775344;79;20131;-78